createdAt,value
2022-11-25T00:01:32.007Z,3.10
2022-11-25T00:03:59.854Z,3.35
2022-11-25T00:06:31.852Z,2.95
2022-11-25T00:09:07.861Z,3.33
2022-11-25T00:11:36.528Z,2.78
2022-11-25T00:14:08.318Z,3.67
2022-11-25T00:21:05.295Z,3.05
2022-11-25T00:23:33.632Z,3.05
2022-11-25T00:26:15.820Z,3.55
2022-11-25T00:28:44.603Z,3.13
2022-11-25T00:31:23.225Z,3.60
2022-11-25T00:33:52.297Z,2.28
2022-11-25T00:36:25.570Z,3.33
2022-11-25T00:39:01.061Z,3.63
2022-11-25T00:41:48.610Z,3.97
2022-11-25T00:44:37.025Z,3.30
2022-11-25T00:47:14.949Z,1.70
2022-11-25T00:49:52.272Z,1.67
2022-11-25T00:52:24.963Z,1.63
2022-11-25T00:54:54.200Z,1.80
2022-11-25T00:57:23.338Z,2.33
2022-11-25T00:59:51.376Z,1.10
2022-11-25T01:02:24.142Z,1.00
2022-11-25T01:05:55.600Z,1.27
2022-11-25T01:08:22.456Z,0.80
2022-11-25T01:11:52.535Z,0.75
2022-11-25T01:14:23.061Z,0.82
2022-11-25T01:16:52.257Z,1.02
2022-11-25T01:19:20.668Z,0.80
2022-11-25T01:21:49.529Z,1.00
2022-11-25T01:24:18.008Z,1.00
2022-11-25T01:26:46.644Z,0.80
2022-11-25T01:29:18.924Z,0.82
2022-11-25T01:31:48.716Z,0.80
2022-11-25T01:34:21.005Z,1.00
2022-11-25T01:36:49.298Z,1.30
2022-11-25T01:39:28.406Z,1.25
2022-11-25T01:42:05.238Z,1.27
2022-11-25T01:44:39.322Z,1.20
2022-11-25T01:47:25.609Z,1.42
2022-11-25T01:49:58.763Z,1.35
2022-11-25T01:52:32.251Z,1.33
2022-11-25T01:55:26.484Z,1.20
2022-11-25T01:58:07.378Z,1.25
2022-11-25T02:00:37.870Z,1.02
2022-11-25T02:03:05.525Z,0.98
2022-11-25T02:05:46.679Z,1.00
2022-11-25T02:08:17.095Z,0.82
2022-11-25T02:10:46.749Z,0.90
2022-11-25T02:13:15.045Z,1.13
2022-11-25T02:15:42.019Z,1.00
2022-11-25T02:18:12.114Z,0.80
2022-11-25T02:20:40.369Z,0.90
2022-11-25T02:23:58.685Z,1.00
2022-11-25T02:26:27.021Z,0.70
2022-11-25T02:28:54.519Z,1.23
2022-11-25T02:31:23.453Z,0.60
2022-11-25T02:34:43.404Z,0.70
2022-11-25T02:37:11.364Z,1.00
2022-11-25T02:39:38.121Z,0.90
2022-11-25T02:42:08.057Z,0.90
2022-11-25T02:44:36.289Z,0.73
2022-11-25T02:47:06.519Z,1.10
2022-11-25T02:49:33.376Z,1.02
2022-11-25T02:52:00.319Z,1.30
2022-11-25T02:54:28.664Z,0.75
2022-11-25T02:56:57.751Z,1.23
2022-11-25T02:59:24.609Z,1.20
2022-11-25T03:01:53.584Z,1.40
2022-11-25T03:04:20.684Z,1.23
2022-11-25T03:06:49.565Z,1.55
2022-11-25T03:09:17.540Z,1.30
2022-11-25T03:12:03.913Z,1.70
2022-11-25T03:14:31.876Z,1.85
2022-11-25T03:16:59.784Z,1.92
2022-11-25T03:19:29.062Z,1.77
2022-11-25T03:21:56.906Z,2.00
2022-11-25T03:24:23.778Z,2.38
2022-11-25T03:26:51.656Z,2.58
2022-11-25T03:29:20.932Z,2.17
2022-11-25T03:31:55.092Z,2.10
2022-11-25T03:34:24.516Z,2.40
2022-11-25T03:37:17.654Z,2.13
2022-11-25T03:39:44.920Z,1.98
2022-11-25T03:42:14.745Z,2.10
2022-11-25T03:44:44.057Z,2.22
2022-11-25T03:47:14.096Z,2.55
2022-11-25T03:49:43.683Z,3.10
2022-11-25T03:52:10.572Z,2.10
2022-11-25T03:55:29.857Z,2.00
2022-11-25T03:57:58.891Z,2.50
2022-11-25T04:00:33.436Z,2.60
2022-11-25T04:03:03.715Z,2.55
2022-11-25T04:05:33.377Z,2.05
2022-11-25T04:08:08.167Z,2.17
2022-11-25T04:10:37.041Z,2.50
2022-11-25T04:13:06.486Z,2.20
2022-11-25T04:15:37.643Z,2.70
2022-11-25T04:18:09.489Z,1.73
2022-11-25T04:20:36.536Z,2.33
2022-11-25T04:23:09.180Z,2.50
2022-11-25T04:25:43.231Z,3.00
2022-11-25T04:28:20.500Z,2.75
2022-11-25T04:30:47.806Z,2.25
2022-11-25T04:33:14.980Z,2.63
2022-11-25T04:35:43.463Z,2.35
2022-11-25T04:38:12.721Z,2.50
2022-11-25T04:40:43.500Z,2.88
2022-11-25T04:43:17.789Z,2.55
2022-11-25T04:46:13.582Z,2.15
2022-11-25T04:48:44.518Z,2.47
2022-11-25T04:51:12.572Z,2.05
2022-11-25T04:53:41.023Z,1.73
2022-11-25T04:56:17.465Z,2.40
2022-11-25T04:59:05.333Z,2.20
2022-11-25T05:01:34.081Z,2.38
2022-11-25T05:04:10.791Z,2.60
2022-11-25T05:06:38.967Z,3.70
2022-11-25T05:09:07.108Z,2.20
2022-11-25T05:11:36.640Z,2.65
2022-11-25T05:14:05.035Z,2.50
2022-11-25T05:16:34.160Z,2.33
2022-11-25T05:19:02.719Z,2.50
2022-11-25T05:21:29.548Z,2.10
2022-11-25T05:23:57.476Z,2.35
2022-11-25T05:26:28.680Z,2.10
2022-11-25T05:28:59.464Z,2.15
2022-11-25T05:31:27.834Z,1.83
2022-11-25T05:33:54.775Z,2.55
2022-11-25T05:36:26.136Z,2.10
2022-11-25T05:38:57.376Z,2.55
2022-11-25T05:41:35.496Z,2.05
2022-11-25T05:44:05.481Z,2.60
2022-11-25T05:46:36.164Z,2.58
2022-11-25T05:49:05.174Z,1.90
2022-11-25T05:51:32.733Z,3.40
2022-11-25T05:54:04.453Z,2.35
2022-11-25T05:56:36.160Z,2.05
2022-11-25T05:59:29.720Z,2.70
2022-11-25T06:02:09.327Z,2.42
2022-11-25T06:04:37.728Z,2.40
2022-11-25T06:07:04.937Z,2.83
2022-11-25T06:09:32.026Z,2.78
2022-11-25T06:12:00.722Z,2.88
2022-11-25T06:14:29.333Z,3.55
2022-11-25T06:16:56.494Z,2.60
2022-11-25T06:19:31.572Z,2.78
2022-11-25T06:21:58.557Z,2.40
2022-11-25T06:24:28.636Z,2.88
2022-11-25T06:27:01.391Z,2.72
2022-11-25T06:29:32.331Z,3.17
2022-11-25T06:32:00.044Z,3.63
2022-11-25T06:34:41.933Z,3.08
2022-11-25T06:37:17.179Z,3.03
2022-11-25T06:39:44.115Z,2.38
2022-11-25T06:42:12.067Z,3.15
2022-11-25T06:44:39.112Z,2.67
2022-11-25T06:47:07.060Z,3.10
2022-11-25T06:49:34.083Z,2.72
2022-11-25T06:52:01.151Z,2.45
2022-11-25T06:54:28.040Z,2.88
2022-11-25T06:56:54.950Z,2.63
2022-11-25T06:59:23.826Z,3.10
2022-11-25T07:06:27.106Z,3.08
2022-11-25T07:08:57.154Z,3.40
2022-11-25T07:11:33.299Z,3.40
2022-11-25T07:14:06.109Z,2.53
2022-11-25T07:16:36.196Z,3.70
2022-11-25T07:19:04.928Z,2.97
2022-11-25T07:22:32.725Z,3.08
2022-11-25T07:24:59.783Z,3.40
2022-11-25T07:27:26.639Z,2.90
2022-11-25T07:30:29.156Z,3.05
2022-11-25T07:32:40.520Z,4.03
2022-11-25T07:35:09.503Z,2.70
2022-11-25T07:37:36.370Z,3.33
2022-11-25T07:40:03.445Z,3.15
2022-11-25T07:42:30.242Z,2.60
2022-11-25T07:44:57.228Z,2.97
2022-11-25T07:47:43.684Z,3.50
2022-11-25T07:50:11.145Z,3.28
2022-11-25T07:52:40.692Z,2.95
2022-11-25T07:55:08.309Z,3.72
2022-11-25T07:57:35.343Z,3.10
2022-11-25T08:00:04.277Z,3.80
2022-11-25T08:02:39.356Z,4.07
2022-11-25T08:05:06.912Z,3.53
2022-11-25T08:07:36.671Z,3.83
2022-11-25T08:10:04.743Z,2.90
2022-11-25T08:12:34.864Z,3.55
2022-11-25T08:15:01.846Z,3.88
2022-11-25T08:17:28.704Z,4.00
2022-11-25T08:19:57.577Z,3.28
2022-11-25T08:22:24.543Z,3.15
2022-11-25T08:24:51.565Z,3.47
2022-11-25T08:27:18.364Z,3.65
2022-11-25T08:29:45.233Z,4.13
2022-11-25T08:32:12.290Z,4.22
2022-11-25T08:34:39.213Z,3.90
2022-11-25T08:37:07.520Z,4.80
2022-11-25T08:42:22.876Z,3.95
2022-11-25T08:44:54.084Z,3.80
2022-11-25T08:47:21.543Z,4.43
2022-11-25T08:49:55.071Z,3.83
2022-11-25T08:52:22.723Z,3.42
2022-11-25T08:54:51.572Z,4.03
2022-11-25T08:57:18.405Z,4.35
2022-11-25T08:59:45.525Z,4.25
2022-11-25T09:02:15.112Z,4.13
2022-11-25T09:04:45.180Z,3.88
2022-11-25T09:07:12.351Z,3.70
2022-11-25T09:09:40.838Z,5.03
2022-11-25T09:12:07.813Z,3.72
2022-11-25T09:14:35.897Z,3.30
2022-11-25T09:17:03.720Z,3.03
2022-11-25T09:19:30.620Z,3.50
2022-11-25T09:21:57.489Z,3.10
2022-11-25T09:24:24.327Z,3.10
2022-11-25T09:26:52.258Z,3.47
2022-11-25T09:29:19.210Z,3.35
2022-11-25T09:31:48.921Z,3.50
2022-11-25T09:34:20.983Z,3.30
2022-11-25T09:36:48.798Z,3.15
2022-11-25T09:39:16.786Z,3.75
2022-11-25T09:42:40.682Z,3.08
2022-11-25T09:45:35.968Z,3.13
2022-11-25T09:48:06.326Z,3.28
2022-11-25T09:51:00.514Z,2.80
2022-11-25T09:53:42.864Z,3.55
2022-11-25T09:56:44.780Z,3.55
2022-11-25T09:59:28.925Z,2.08
2022-11-25T10:02:02.362Z,2.40
2022-11-25T10:05:01.498Z,2.95
2022-11-25T10:07:36.624Z,2.78
2022-11-25T10:10:05.929Z,2.80
2022-11-25T10:12:37.622Z,2.28
2022-11-25T10:15:13.357Z,3.07
2022-11-25T10:18:06.786Z,2.70
2022-11-25T10:20:36.857Z,2.50
2022-11-25T10:23:16.397Z,3.92
2022-11-25T10:25:47.414Z,2.85
2022-11-25T10:28:29.632Z,2.88
2022-11-25T10:31:06.399Z,2.42
2022-11-25T10:33:41.860Z,2.00
2022-11-25T10:36:17.816Z,7.60
2022-11-25T10:39:03.105Z,3.53
2022-11-25T10:41:34.835Z,3.03
2022-11-25T10:44:01.696Z,2.33
2022-11-25T10:47:11.678Z,2.75
2022-11-25T10:49:34.529Z,2.10
2022-11-25T10:52:09.604Z,2.38
2022-11-25T10:54:36.568Z,2.10
2022-11-25T10:57:19.864Z,2.58
2022-11-25T10:59:59.029Z,2.40
2022-11-25T11:02:37.677Z,2.28
2022-11-25T11:05:18.505Z,2.85
2022-11-25T11:07:46.828Z,2.58
2022-11-25T11:10:17.683Z,2.70
2022-11-25T11:13:02.464Z,2.70
2022-11-25T11:15:32.551Z,2.85
2022-11-25T11:18:13.811Z,3.03
2022-11-25T11:20:48.407Z,2.70
2022-11-25T11:23:15.740Z,2.75
2022-11-25T11:25:56.688Z,2.90
2022-11-25T11:28:41.988Z,3.50
2022-11-25T11:31:19.564Z,3.00
2022-11-25T11:34:08.104Z,3.33
2022-11-25T11:36:54.385Z,2.72
2022-11-25T11:40:00.049Z,3.50
2022-11-25T11:42:57.662Z,2.92
2022-11-25T11:45:34.306Z,3.58
2022-11-25T11:48:23.123Z,3.28
2022-11-25T11:51:17.751Z,3.65
2022-11-25T11:53:59.963Z,3.17
2022-11-25T11:56:35.596Z,3.72
2022-11-25T11:59:13.563Z,3.22
2022-11-25T12:01:55.461Z,3.30
2022-11-25T12:04:31.030Z,3.50
2022-11-25T12:07:30.188Z,4.10
2022-11-25T12:10:38.844Z,3.03
2022-11-25T12:13:23.245Z,3.75
2022-11-25T12:15:58.747Z,3.63
2022-11-25T12:18:55.744Z,3.35
2022-11-25T12:21:42.924Z,3.78
2022-11-25T12:24:17.753Z,3.72
2022-11-25T12:27:15.473Z,4.25
2022-11-25T12:29:50.654Z,3.03
2022-11-25T12:32:32.954Z,4.82
2022-11-25T12:35:17.632Z,3.45
2022-11-25T12:37:49.737Z,4.03
2022-11-25T12:40:34.173Z,4.25
2022-11-25T12:43:15.565Z,3.53
2022-11-25T12:45:45.735Z,3.70
2022-11-25T12:48:21.147Z,3.65
2022-11-25T12:51:00.021Z,3.20
2022-11-25T12:53:50.543Z,3.20
2022-11-25T12:56:27.501Z,3.58
2022-11-25T12:59:33.374Z,3.72
2022-11-25T13:02:21.083Z,3.38
2022-11-25T13:05:40.024Z,3.97
2022-11-25T13:08:39.132Z,4.15
2022-11-25T13:11:37.775Z,3.50
2022-11-25T13:14:25.285Z,3.60
2022-11-25T13:16:55.991Z,4.55
2022-11-25T13:19:24.473Z,4.18
2022-11-25T13:22:04.343Z,4.10
2022-11-25T13:24:39.950Z,3.90
2022-11-25T13:27:29.734Z,4.40
2022-11-25T13:29:59.332Z,3.78
2022-11-25T13:32:32.117Z,3.70
2022-11-25T13:35:34.754Z,3.78
2022-11-25T13:38:06.498Z,3.38
2022-11-25T13:40:39.106Z,5.00
2022-11-25T13:45:48.379Z,4.18
2022-11-25T13:48:30.765Z,3.85
2022-11-25T13:51:22.411Z,4.15
2022-11-25T13:53:57.946Z,4.70
2022-11-25T13:56:31.879Z,3.60
2022-11-25T13:59:11.062Z,3.80
2022-11-25T14:01:47.113Z,4.05
2022-11-25T14:04:17.343Z,5.22
2022-11-25T14:07:01.715Z,3.97
2022-11-25T14:10:08.143Z,5.72
2022-11-25T14:12:58.787Z,4.38
2022-11-25T14:16:06.476Z,4.38
2022-11-25T14:21:45.688Z,6.13
2022-11-25T14:24:50.688Z,4.57
2022-11-25T14:27:25.604Z,4.75
2022-11-25T14:30:00.991Z,4.70
2022-11-25T14:33:02.586Z,4.78
2022-11-25T14:35:37.869Z,4.13
2022-11-25T14:39:08.851Z,4.60
2022-11-25T14:41:57.967Z,4.70
2022-11-25T14:44:35.915Z,3.95
2022-11-25T14:47:05.893Z,4.05
2022-11-25T14:52:46.013Z,4.68
2022-11-25T14:55:26.312Z,5.13
2022-11-25T14:57:55.820Z,4.05
2022-11-25T15:00:23.456Z,4.55
2022-11-25T15:02:56.372Z,4.10
2022-11-25T15:05:30.755Z,4.47
2022-11-25T15:08:01.622Z,5.35
2022-11-25T15:10:36.953Z,5.05
2022-11-25T15:13:13.146Z,4.50
2022-11-25T15:15:45.131Z,3.88
2022-11-25T15:18:20.161Z,4.00
2022-11-25T15:20:59.839Z,4.47
2022-11-25T15:23:36.335Z,4.95
2022-11-25T15:26:05.198Z,3.78
2022-11-25T15:28:38.251Z,4.57
2022-11-25T15:31:24.962Z,4.25
2022-11-25T15:33:56.606Z,4.95
2022-11-25T15:36:25.100Z,4.20
2022-11-25T15:38:52.198Z,6.47
2022-11-25T15:41:29.888Z,5.40
2022-11-25T15:44:00.649Z,5.00
2022-11-25T15:46:30.541Z,5.40
2022-11-25T15:49:05.678Z,5.45
2022-11-25T15:51:50.476Z,4.75
2022-11-25T15:54:31.322Z,4.93
2022-11-25T15:57:03.517Z,5.18
2022-11-25T15:59:48.432Z,4.80
2022-11-25T16:02:36.220Z,4.47
2022-11-25T16:05:16.722Z,5.18
2022-11-25T16:07:53.246Z,4.70
2022-11-25T16:10:31.877Z,4.97
2022-11-25T16:13:23.916Z,4.55
2022-11-25T16:16:21.195Z,5.43
2022-11-25T16:19:02.998Z,4.60
2022-11-25T16:21:41.482Z,5.07
2022-11-25T16:24:38.033Z,5.45
2022-11-25T16:27:16.267Z,5.70
2022-11-25T16:30:04.483Z,5.50
2022-11-25T16:32:33.033Z,5.22
2022-11-25T16:35:22.206Z,5.43
2022-11-25T16:37:50.254Z,5.45
2022-11-25T16:40:18.613Z,4.93
2022-11-25T16:42:48.548Z,5.30
2022-11-25T16:45:20.962Z,5.47
2022-11-25T16:47:47.944Z,4.95
2022-11-25T16:50:19.019Z,5.60
2022-11-25T16:52:46.284Z,6.05
2022-11-25T16:55:18.606Z,5.90
2022-11-25T16:57:47.007Z,5.60
2022-11-25T17:00:17.332Z,5.63
2022-11-25T17:02:46.454Z,6.70
2022-11-25T17:05:24.543Z,6.03
2022-11-25T17:07:57.846Z,6.18
2022-11-25T17:10:27.135Z,6.78
2022-11-25T17:12:55.376Z,7.95
2022-11-25T17:15:32.958Z,7.82
2022-11-25T17:18:02.367Z,7.68
2022-11-25T17:20:30.440Z,7.35
2022-11-25T17:23:00.538Z,7.22
2022-11-25T17:25:35.299Z,6.63
2022-11-25T17:28:04.343Z,6.93
2022-11-25T17:30:32.845Z,7.80
2022-11-25T17:33:07.713Z,6.78
2022-11-25T17:35:34.667Z,7.78
2022-11-25T17:38:17.464Z,8.52
2022-11-25T17:43:19.495Z,7.25
2022-11-25T17:45:49.589Z,7.75
2022-11-25T17:48:19.071Z,7.20
2022-11-25T17:50:48.098Z,7.65
2022-11-25T17:53:14.980Z,7.85
2022-11-25T17:55:43.164Z,8.02
2022-11-25T17:58:12.296Z,8.02
2022-11-25T18:00:43.378Z,7.80
2022-11-25T18:03:12.994Z,7.60
2022-11-25T18:05:42.359Z,8.50
2022-11-25T18:08:09.369Z,8.63
2022-11-25T18:10:36.250Z,7.32
2022-11-25T18:13:03.699Z,7.75
2022-11-25T18:15:34.124Z,9.07
2022-11-25T18:18:09.626Z,8.20
2022-11-25T18:20:37.019Z,8.18
2022-11-25T18:23:03.942Z,9.90
2022-11-25T18:25:33.969Z,8.05
2022-11-25T18:28:03.987Z,8.32
2022-11-25T18:30:33.586Z,9.75
2022-11-25T18:33:01.609Z,8.80
2022-11-25T18:35:36.095Z,8.27
2022-11-25T18:38:04.160Z,9.60
2022-11-25T18:40:31.223Z,8.95
2022-11-25T18:43:02.436Z,8.90
2022-11-25T18:45:36.039Z,8.32
2022-11-25T18:48:22.128Z,9.73
2022-11-25T18:50:50.825Z,9.00
2022-11-25T18:53:18.782Z,9.32
2022-11-25T18:55:48.459Z,9.18
2022-11-25T18:58:27.185Z,8.07
2022-11-25T19:01:00.734Z,9.20
2022-11-25T19:03:27.756Z,9.35
2022-11-25T19:05:55.891Z,9.10
2022-11-25T19:08:23.871Z,8.80
2022-11-25T19:10:51.500Z,9.38
2022-11-25T19:13:25.682Z,8.40
2022-11-25T19:15:53.013Z,8.82
2022-11-25T19:18:26.734Z,9.68
2022-11-25T19:20:54.077Z,8.82
2022-11-25T19:23:27.849Z,9.32
2022-11-25T19:25:59.763Z,9.88
2022-11-25T19:28:27.597Z,9.50
2022-11-25T19:31:00.467Z,9.23
2022-11-25T19:33:34.607Z,9.07
2022-11-25T19:36:01.684Z,8.98
2022-11-25T19:38:29.885Z,9.60
2022-11-25T19:40:57.797Z,10.00
2022-11-25T19:43:27.022Z,10.00
2022-11-25T19:45:56.939Z,9.18
2022-11-25T19:48:28.395Z,9.98
2022-11-25T19:50:59.971Z,13.23
2022-11-25T19:53:33.115Z,10.90
2022-11-25T19:56:04.818Z,8.93
2022-11-25T19:58:32.465Z,10.27
2022-11-25T20:01:03.812Z,10.65
2022-11-25T20:03:33.405Z,10.20
2022-11-25T20:06:00.295Z,10.88
2022-11-25T20:08:29.236Z,11.18
2022-11-25T20:10:56.761Z,11.15
2022-11-25T20:13:25.928Z,10.88
2022-11-25T20:15:54.917Z,11.18
2022-11-25T20:18:24.265Z,12.70
2022-11-25T20:21:00.713Z,11.20
2022-11-25T20:23:37.453Z,12.02
2022-11-25T20:26:26.850Z,12.07
2022-11-25T20:28:53.722Z,11.50
2022-11-25T20:31:22.193Z,11.68
2022-11-25T20:33:50.606Z,12.10
2022-11-25T20:36:22.291Z,12.38
2022-11-25T20:38:54.826Z,11.43
2022-11-25T20:41:27.532Z,12.80
2022-11-25T20:43:56.477Z,12.75
2022-11-25T20:46:27.041Z,14.82
2022-11-25T20:48:57.401Z,13.02
2022-11-25T20:51:26.093Z,13.20
2022-11-25T20:53:59.517Z,14.00
2022-11-25T20:56:27.625Z,11.48
2022-11-25T20:58:55.141Z,11.20
2022-11-25T21:01:22.602Z,12.73
2022-11-25T21:03:50.341Z,11.23
2022-11-25T21:06:27.649Z,11.73
2022-11-25T21:08:56.716Z,12.57
2022-11-25T21:11:24.004Z,12.13
2022-11-25T21:13:52.113Z,11.95
2022-11-25T21:16:19.052Z,10.85
2022-11-25T21:18:46.323Z,12.43
2022-11-25T21:21:29.149Z,11.75
2022-11-25T21:23:57.663Z,11.90
2022-11-25T21:26:26.663Z,10.70
2022-11-25T21:28:55.277Z,11.90
2022-11-25T21:31:24.495Z,10.95
2022-11-25T21:33:56.526Z,11.60
2022-11-25T21:36:27.936Z,11.90
2022-11-25T21:39:04.147Z,11.52
2022-11-25T21:41:31.170Z,10.93
2022-11-25T21:44:00.567Z,10.23
2022-11-25T21:46:28.895Z,10.35
2022-11-25T21:48:55.886Z,12.18
2022-11-25T21:51:26.510Z,11.52
2022-11-25T21:53:54.744Z,12.60
2022-11-25T21:56:37.554Z,11.05
2022-11-25T22:01:36.017Z,10.38
2022-11-25T22:04:04.127Z,10.70
2022-11-25T22:06:35.461Z,10.73
2022-11-25T22:09:03.770Z,11.30
2022-11-25T22:11:34.712Z,12.00
2022-11-25T22:14:13.174Z,11.93
2022-11-25T22:16:41.460Z,11.70
2022-11-25T22:19:18.072Z,11.30
2022-11-25T22:21:45.997Z,12.40
2022-11-25T22:24:24.130Z,11.10
2022-11-25T22:26:57.842Z,11.35
2022-11-25T22:29:33.961Z,11.63
2022-11-25T22:32:01.642Z,13.25
2022-11-25T22:34:30.708Z,11.88
2022-11-25T22:36:57.733Z,12.90
2022-11-25T22:39:26.723Z,12.57
2022-11-25T22:42:07.677Z,12.80
2022-11-25T22:44:43.988Z,11.52
2022-11-25T22:47:37.917Z,10.88
2022-11-25T22:50:27.338Z,11.52
2022-11-25T22:52:55.477Z,11.25
2022-11-25T22:55:27.659Z,11.77
2022-11-25T22:57:58.771Z,11.88
2022-11-25T23:00:28.453Z,11.93
2022-11-25T23:02:57.439Z,13.48
2022-11-25T23:05:32.155Z,9.45
2022-11-25T23:08:09.883Z,11.55
2022-11-25T23:10:36.842Z,11.02
2022-11-25T23:13:03.680Z,12.07
2022-11-25T23:15:31.710Z,11.85
2022-11-25T23:18:01.027Z,11.35
2022-11-25T23:20:29.260Z,10.90
2022-11-25T23:23:01.803Z,11.55
2022-11-25T23:25:29.671Z,10.25
2022-11-25T23:27:57.513Z,10.90
2022-11-25T23:30:24.592Z,10.68
2022-11-25T23:32:53.467Z,11.07
2022-11-25T23:35:32.396Z,11.07
2022-11-25T23:38:00.513Z,11.10
2022-11-25T23:40:28.209Z,10.70
2022-11-25T23:42:56.238Z,11.43
2022-11-25T23:45:25.933Z,12.93
2022-11-25T23:47:55.028Z,10.35
2022-11-25T23:50:28.627Z,11.20
2022-11-25T23:53:01.119Z,10.65
2022-11-25T23:55:38.402Z,10.75
2022-11-25T23:58:14.744Z,10.27
